createdAt,value
2023-03-22T00:02:16.724Z,55.78
2023-03-22T00:04:45.001Z,56.43
2023-03-22T00:07:14.646Z,50.55
2023-03-22T00:09:42.649Z,47.85
2023-03-22T00:12:11.514Z,48.28
2023-03-22T00:14:39.762Z,49.70
2023-03-22T00:17:08.510Z,59.63
2023-03-22T00:19:37.605Z,51.97
2023-03-22T00:22:06.524Z,54.83
2023-03-22T00:24:34.749Z,48.30
2023-03-22T00:27:02.974Z,49.75
2023-03-22T00:29:31.303Z,48.97
2023-03-22T00:31:59.304Z,55.08
2023-03-22T00:34:32.346Z,49.95
2023-03-22T00:37:01.561Z,56.83
2023-03-22T00:39:30.368Z,55.30
2023-03-22T00:41:58.389Z,51.20
2023-03-22T00:44:27.439Z,50.05
2023-03-22T00:46:55.689Z,45.15
2023-03-22T00:49:24.664Z,44.75
2023-03-22T00:51:52.689Z,49.13
2023-03-22T00:54:20.807Z,51.25
2023-03-22T00:56:50.912Z,48.33
2023-03-22T00:59:19.882Z,52.15
2023-03-22T01:01:48.125Z,51.50
2023-03-22T01:04:20.312Z,50.28
2023-03-22T01:06:48.488Z,43.22
2023-03-22T01:09:17.042Z,49.22
2023-03-22T01:11:45.426Z,45.85
2023-03-22T01:14:14.216Z,46.13
2023-03-22T01:16:44.178Z,48.75
2023-03-22T01:21:39.900Z,49.10
2023-03-22T01:24:11.686Z,46.72
2023-03-22T01:26:40.290Z,45.38
2023-03-22T01:29:08.663Z,44.38
2023-03-22T01:31:37.043Z,46.55
2023-03-22T01:34:05.797Z,50.78
2023-03-22T01:36:33.855Z,39.80
2023-03-22T01:39:01.990Z,45.28
2023-03-22T01:41:30.186Z,49.17
2023-03-22T01:44:18.212Z,47.42
2023-03-22T01:46:48.238Z,46.33
2023-03-22T01:52:09.338Z,43.10
2023-03-22T01:54:48.516Z,49.78
2023-03-22T01:57:16.850Z,51.37
2023-03-22T01:59:45.337Z,51.25
2023-03-22T02:02:20.460Z,45.17
2023-03-22T02:05:00.108Z,48.63
2023-03-22T02:07:31.950Z,49.92
2023-03-22T02:10:34.299Z,47.13
2023-03-22T02:13:21.802Z,47.60
2023-03-22T02:16:10.806Z,39.97
2023-03-22T02:19:19.227Z,45.87
2023-03-22T02:22:14.662Z,51.40
2023-03-22T02:25:09.350Z,45.28
2023-03-22T02:27:56.743Z,41.22
2023-03-22T02:30:54.067Z,49.40
2023-03-22T02:33:43.668Z,39.28
2023-03-22T02:36:43.962Z,45.28
2023-03-22T02:39:44.197Z,40.20
2023-03-22T02:42:34.071Z,47.08
2023-03-22T02:48:31.425Z,41.83
2023-03-22T02:51:10.650Z,39.92
2023-03-22T02:54:05.613Z,46.92
2023-03-22T02:56:46.980Z,44.53
2023-03-22T02:59:17.290Z,39.10
2023-03-22T03:01:58.027Z,53.83
2023-03-22T03:04:34.682Z,36.88
2023-03-22T03:07:09.885Z,38.33
2023-03-22T03:09:40.871Z,40.53
2023-03-22T03:12:28.600Z,39.22
2023-03-22T03:14:56.815Z,48.40
2023-03-22T03:18:03.589Z,37.67
2023-03-22T03:20:57.779Z,36.47
2023-03-22T03:23:43.476Z,34.67
2023-03-22T03:26:44.458Z,38.90
2023-03-22T03:29:46.272Z,39.83
2023-03-22T03:32:20.530Z,32.33
2023-03-22T03:35:02.194Z,31.75
2023-03-22T03:37:48.687Z,32.05
2023-03-22T03:40:27.856Z,34.85
2023-03-22T03:42:59.294Z,32.97
2023-03-22T03:45:27.583Z,40.42
2023-03-22T03:47:59.985Z,35.85
2023-03-22T03:50:30.347Z,35.70
2023-03-22T03:52:59.056Z,30.75
2023-03-22T03:55:30.409Z,33.03
2023-03-22T03:57:58.851Z,35.97
2023-03-22T04:00:33.380Z,30.45
2023-03-22T04:03:02.013Z,31.77
2023-03-22T04:05:31.717Z,28.83
2023-03-22T04:08:00.046Z,32.28
2023-03-22T04:10:28.487Z,31.95
2023-03-22T04:13:14.559Z,31.35
2023-03-22T04:15:42.892Z,32.53
2023-03-22T04:18:11.699Z,34.25
2023-03-22T04:20:43.531Z,32.10
2023-03-22T04:23:13.019Z,32.75
2023-03-22T04:25:44.661Z,33.47
2023-03-22T04:28:13.943Z,36.60
2023-03-22T04:30:46.118Z,33.13
2023-03-22T04:35:59.926Z,30.65
2023-03-22T04:41:35.684Z,27.95
2023-03-22T04:47:12.718Z,35.63
2023-03-22T04:49:41.321Z,30.60
2023-03-22T04:52:09.646Z,28.58
2023-03-22T04:54:38.674Z,29.33
2023-03-22T04:57:07.405Z,31.77
2023-03-22T04:59:35.601Z,25.63
2023-03-22T05:02:07.662Z,30.20
2023-03-22T05:04:36.084Z,26.00
2023-03-22T05:07:04.229Z,30.15
2023-03-22T05:09:35.592Z,26.65
2023-03-22T05:12:04.136Z,25.70
2023-03-22T05:14:32.942Z,27.42
2023-03-22T05:17:01.150Z,24.63
2023-03-22T05:19:52.875Z,24.10
2023-03-22T05:22:22.810Z,23.15
2023-03-22T05:24:50.857Z,27.67
2023-03-22T05:27:34.494Z,28.13
2023-03-22T05:30:03.136Z,25.38
2023-03-22T05:32:34.224Z,26.00
2023-03-22T05:35:07.007Z,23.00
2023-03-22T05:37:38.999Z,26.65
2023-03-22T05:40:10.383Z,24.63
2023-03-22T05:42:41.584Z,28.27
2023-03-22T05:45:14.575Z,21.90
2023-03-22T05:51:33.137Z,23.05
2023-03-22T05:54:10.823Z,23.42
2023-03-22T05:56:41.504Z,20.13
2023-03-22T05:59:09.507Z,20.88
2023-03-22T06:01:44.010Z,21.65
2023-03-22T06:04:16.891Z,19.98
2023-03-22T06:06:46.114Z,26.73
2023-03-22T06:09:17.626Z,20.48
2023-03-22T06:11:46.327Z,20.02
2023-03-22T06:14:14.664Z,20.95
2023-03-22T06:16:43.192Z,22.42
2023-03-22T06:19:11.600Z,24.52
2023-03-22T06:21:46.407Z,24.25
2023-03-22T06:24:14.477Z,21.98
2023-03-22T06:26:42.532Z,20.70
2023-03-22T06:29:24.873Z,20.48
2023-03-22T06:31:52.931Z,19.05
2023-03-22T06:34:20.996Z,26.33
2023-03-22T06:36:49.073Z,22.90
2023-03-22T06:39:17.537Z,17.90
2023-03-22T06:41:46.165Z,21.38
2023-03-22T06:44:15.513Z,19.35
2023-03-22T06:46:45.135Z,24.23
2023-03-22T06:49:14.355Z,21.58
2023-03-22T06:51:42.348Z,24.17
2023-03-22T06:54:10.555Z,24.98
2023-03-22T06:56:38.913Z,21.40
2023-03-22T06:59:26.734Z,20.38
2023-03-22T07:01:58.253Z,17.77
2023-03-22T07:04:29.639Z,24.50
2023-03-22T07:06:59.326Z,21.85
2023-03-22T07:11:55.722Z,17.75
2023-03-22T07:14:24.263Z,17.83
2023-03-22T07:16:57.457Z,20.35
2023-03-22T07:19:26.359Z,25.45
2023-03-22T07:22:00.037Z,18.17
2023-03-22T07:24:29.944Z,21.38
2023-03-22T07:26:58.032Z,19.23
2023-03-22T07:29:27.483Z,18.92
2023-03-22T07:31:56.754Z,21.17
2023-03-22T07:34:25.683Z,20.67
2023-03-22T07:36:53.954Z,18.43
2023-03-22T07:39:32.826Z,18.95
2023-03-22T07:42:01.111Z,22.60
2023-03-22T07:44:29.369Z,19.02
2023-03-22T07:46:59.031Z,18.20
2023-03-22T07:49:27.499Z,20.30
2023-03-22T07:51:55.887Z,17.25
2023-03-22T07:54:33.427Z,21.35
2023-03-22T07:57:02.677Z,20.40
2023-03-22T07:59:31.536Z,16.33
2023-03-22T08:01:59.908Z,18.15
2023-03-22T08:04:28.238Z,18.17
2023-03-22T08:07:02.227Z,21.67
2023-03-22T08:09:40.434Z,16.98
2023-03-22T08:12:11.720Z,23.00
2023-03-22T08:20:48.889Z,21.08
2023-03-22T08:23:17.397Z,19.20
2023-03-22T08:26:10.570Z,22.02
2023-03-22T08:28:58.497Z,19.23
2023-03-22T08:31:30.546Z,22.90
2023-03-22T08:34:00.541Z,22.08
2023-03-22T08:36:29.532Z,18.65
2023-03-22T08:39:04.844Z,20.65
2023-03-22T08:41:45.532Z,20.55
2023-03-22T08:44:25.079Z,19.00
2023-03-22T08:46:53.971Z,22.00
2023-03-22T08:49:22.740Z,21.58
2023-03-22T08:51:56.299Z,22.10
2023-03-22T08:54:25.399Z,19.83
2023-03-22T08:56:53.999Z,22.20
2023-03-22T08:59:22.176Z,19.40
2023-03-22T09:05:09.102Z,22.08
2023-03-22T09:07:37.262Z,23.27
2023-03-22T09:10:28.084Z,20.23
2023-03-22T09:13:18.884Z,23.40
2023-03-22T09:16:05.844Z,27.48
2023-03-22T09:21:49.097Z,23.75
2023-03-22T09:24:17.605Z,21.17
2023-03-22T09:27:02.882Z,24.70
2023-03-22T09:30:16.578Z,20.67
2023-03-22T09:32:40.986Z,20.77
2023-03-22T09:35:09.317Z,25.85
2023-03-22T09:37:37.358Z,24.75
2023-03-22T09:40:07.159Z,27.25
2023-03-22T09:42:41.456Z,22.67
2023-03-22T09:45:17.576Z,24.08
2023-03-22T09:47:49.300Z,24.50
2023-03-22T09:50:54.596Z,22.83
2023-03-22T09:53:24.801Z,25.55
2023-03-22T09:55:58.875Z,24.15
2023-03-22T09:58:56.448Z,22.20
2023-03-22T10:01:40.869Z,26.98
2023-03-22T10:04:17.392Z,23.63
2023-03-22T10:06:52.361Z,23.77
2023-03-22T10:09:31.400Z,30.42
2023-03-22T10:12:12.044Z,23.85
2023-03-22T10:15:11.272Z,25.23
2023-03-22T10:17:43.028Z,25.75
2023-03-22T10:20:27.160Z,20.05
2023-03-22T10:22:57.826Z,22.02
2023-03-22T10:25:34.574Z,22.50
2023-03-22T10:30:42.106Z,25.27
2023-03-22T10:33:38.196Z,26.50
2023-03-22T10:36:12.986Z,27.63
2023-03-22T10:38:48.679Z,23.33
2023-03-22T10:41:25.817Z,21.92
2023-03-22T10:43:57.343Z,22.33
2023-03-22T10:46:34.035Z,22.20
2023-03-22T10:49:04.058Z,20.90
2023-03-22T10:51:56.479Z,25.52
2023-03-22T10:54:26.956Z,22.85
2023-03-22T10:56:54.994Z,21.30
2023-03-22T10:59:57.880Z,21.48
2023-03-22T11:02:34.005Z,22.63
2023-03-22T11:05:05.541Z,22.55
2023-03-22T11:07:39.501Z,26.02
2023-03-22T11:10:10.544Z,23.20
2023-03-22T11:12:42.703Z,26.90
2023-03-22T11:15:27.444Z,24.30
2023-03-22T11:18:04.477Z,26.52
2023-03-22T11:20:35.314Z,27.80
2023-03-22T11:23:07.104Z,25.35
2023-03-22T11:25:49.452Z,25.88
2023-03-22T11:28:26.871Z,25.75
2023-03-22T11:31:03.733Z,26.83
2023-03-22T11:33:32.390Z,21.52
2023-03-22T11:36:04.500Z,22.20
2023-03-22T11:38:47.218Z,22.13
2023-03-22T11:41:28.751Z,23.67
2023-03-22T11:44:03.809Z,25.45
2023-03-22T11:46:33.987Z,22.58
2023-03-22T11:49:07.767Z,24.95
2023-03-22T11:51:39.166Z,23.30
2023-03-22T11:54:23.652Z,23.83
2023-03-22T11:56:52.617Z,23.15
2023-03-22T11:59:28.935Z,26.58
2023-03-22T12:02:23.781Z,25.60
2023-03-22T12:05:00.966Z,25.38
2023-03-22T12:07:31.573Z,27.15
2023-03-22T12:10:28.854Z,32.25
2023-03-22T12:13:27.237Z,25.55
2023-03-22T12:16:01.551Z,34.75
2023-03-22T12:18:48.338Z,31.30
2023-03-22T12:21:17.151Z,30.40
2023-03-22T12:23:45.121Z,31.92
2023-03-22T12:26:14.605Z,32.30
2023-03-22T12:29:06.931Z,34.88
2023-03-22T12:31:51.542Z,35.75
2023-03-22T12:34:29.030Z,34.67
2023-03-22T12:36:58.283Z,33.97
2023-03-22T12:39:35.414Z,35.67
2023-03-22T12:42:17.397Z,38.08
2023-03-22T12:44:52.799Z,30.48
2023-03-22T12:47:54.202Z,33.70
2023-03-22T12:50:30.181Z,35.05
2023-03-22T12:53:01.817Z,32.42
2023-03-22T12:55:40.065Z,30.92
2023-03-22T12:58:15.187Z,31.50
2023-03-22T13:01:11.506Z,32.80
2023-03-22T13:03:48.348Z,34.30
2023-03-22T13:06:46.733Z,28.17
2023-03-22T13:09:19.555Z,28.63
2023-03-22T13:12:11.927Z,28.33
2023-03-22T13:15:07.248Z,28.23
2023-03-22T13:17:42.029Z,32.33
2023-03-22T13:20:13.873Z,32.47
2023-03-22T13:22:45.366Z,37.40
2023-03-22T13:25:13.875Z,34.42
2023-03-22T13:28:03.740Z,35.03
2023-03-22T13:30:47.611Z,31.50
2023-03-22T13:33:34.968Z,28.92
2023-03-22T13:36:09.172Z,38.10
2023-03-22T13:38:44.217Z,29.60
2023-03-22T13:41:18.522Z,29.25
2023-03-22T13:43:48.703Z,31.45
2023-03-22T13:46:22.443Z,31.77
2023-03-22T13:48:53.352Z,33.83
2023-03-22T13:51:30.550Z,31.85
2023-03-22T13:54:13.800Z,32.03
2023-03-22T13:56:44.901Z,33.70
2023-03-22T13:59:34.129Z,28.83
2023-03-22T14:02:28.191Z,31.17
2023-03-22T14:05:02.365Z,30.08
2023-03-22T14:07:47.926Z,28.25
2023-03-22T14:10:26.966Z,33.15
2023-03-22T14:13:34.155Z,32.08
2023-03-22T14:16:28.200Z,32.47
2023-03-22T14:18:57.659Z,29.75
2023-03-22T14:21:38.879Z,32.40
